Airfield :







YOU CAN JOIN US ON...

 
LOGIN :

Register | Disclaimer

   EN    FR    IT 

 









Legend :    VFR   Marginal VFR   IFR   Intensive IFR   Very Intensive IFR
Visi :
Ceiling :
>= 8 km
>= 3000ft
5 to 8 km
1000 to 3000 ft
1500m to 5 km
500 to 1000 ft
800 to 1500m
200 to 500 ft
< 800m
< 200 ft
Symbols :   Thunderstorms  Fog  Heavy snow  Heavy precipitations  Wind > 20 kt






- Airport Elevation : 71 ft
- IATA code : YBC


CYBC - Baie Comeau

CURRENT METAR :
  • 301514Z AUTO 30009G17KT 270V350 9SM SCT029 OVC055 16/10 A2954 RMK SLP005 DENSITY ALT 600FT

EXPIRED METARs :
  • 301500Z AUTO 30011G19KT 9SM -RA BKN029 OVC049 16/10 A2953 RMK SLP003 DENSITY ALT 600FT
  • 301459Z AUTO 30011G19KT 9SM -RA BKN029 OVC049 16/10 A2953 RMK SLP002 DENSITY ALT 600FT
  • 301426Z AUTO 33010G19KT 290V010 9SM BKN025 OVC047 16/10 A2951 RMK SLP996 DENSITY ALT 600FT
  • 301408Z AUTO 31018G26KT 280V350 9SM BKN023 OVC043 16/10 A2949 RMK SLP990 DENSITY ALT 700FT
  • 301358Z AUTO 32016G21KT 290V360 9SM BKN043 16/11 A2949 RMK SLP990 DENSITY ALT 700FT
  • 301321Z AUTO 32005G16KT 280V010 9SM OVC036 16/12 A2948 RMK SLP986 DENSITY ALT 600FT
  • 301304Z AUTO 32010G20KT 280V340 9SM -RA OVC032 15/12 A2948 RMK SLP983 DENSITY ALT 600FT
  • 301238Z AUTO 31011G22KT 9SM SCT015 SCT021 OVC026 16/13 A2947 RMK SLP982 DENSITY ALT 600FT

TAF TAF CYBC
Valid from the 30 at 14:00 until the 31 at 02:00 UTC


301330Z 3014/3102 31010G20KT P6SM -SHRA SCT015 OVC030
TEMPO 3014/3017 3SM -SHRA BR SCT008 OVC015
FM301700 30015KT P6SM FEW015 BKN030
BECMG 3100/3102 30008KT RMK FCST BASED ON AUTO OBS. NXT FCST BY 302000Z
CZUL FIR / North America



MET'MAP, your aeronautical weather chart ! - Copyright ORBIFLY December 2007 - Disclaimer

ORBIFLY MET'MAP TEAM :

Programming & Development : Alexandra Zaïnal
Concept & original design : Baudouin d'Aumeries
Assistance for programming : Marc-Olivier Méhu
Technical & hardware support : Manuel Goepfert

Contact : metmap@orbifly.com




SOURCES & CREDITS :

   NOAA